createdAt,value
2022-08-14T00:02:32.443Z,41.40
2022-08-14T00:05:02.462Z,41.80
2022-08-14T00:07:35.537Z,41.71
2022-08-14T00:10:49.845Z,41.93
2022-08-14T00:13:07.059Z,42.15
2022-08-14T00:15:44.084Z,42.18
2022-08-14T00:18:30.993Z,41.91
2022-08-14T00:21:11.023Z,41.85
2022-08-14T00:23:41.959Z,41.91
2022-08-14T00:26:21.693Z,42.60
2022-08-14T00:28:53.116Z,42.04
2022-08-14T00:31:35.190Z,42.35
2022-08-14T00:34:36.733Z,42.48
2022-08-14T00:37:06.627Z,42.58
2022-08-14T00:39:37.915Z,42.12
2022-08-14T00:42:21.191Z,42.52
2022-08-14T00:44:51.751Z,42.43
2022-08-14T00:47:26.887Z,42.82
2022-08-14T00:50:02.042Z,42.58
2022-08-14T00:52:35.015Z,42.76
2022-08-14T00:55:05.963Z,42.30
2022-08-14T00:57:40.351Z,42.76
2022-08-14T01:00:34.212Z,42.75
2022-08-14T01:03:08.764Z,42.64
2022-08-14T01:05:50.679Z,42.66
2022-08-14T01:08:51.415Z,42.47
2022-08-14T01:11:19.026Z,42.76
2022-08-14T01:13:55.830Z,42.64
2022-08-14T01:16:28.038Z,43.00
2022-08-14T01:19:13.973Z,42.91
2022-08-14T01:21:52.754Z,42.86
2022-08-14T01:24:30.402Z,42.99
2022-08-14T01:27:05.664Z,43.32
2022-08-14T01:30:03.172Z,43.12
2022-08-14T01:32:30.019Z,43.07
2022-08-14T01:35:20.561Z,42.53
2022-08-14T01:37:56.180Z,42.71
2022-08-14T01:40:36.389Z,42.88
2022-08-14T01:43:18.763Z,43.05
2022-08-14T01:45:57.693Z,42.58
2022-08-14T01:48:38.845Z,43.24
2022-08-14T01:51:19.745Z,43.09
2022-08-14T01:53:57.715Z,43.10
2022-08-14T01:56:39.187Z,42.95
2022-08-14T01:59:18.328Z,43.06
2022-08-14T02:01:58.496Z,43.36
2022-08-14T02:04:54.633Z,43.59
2022-08-14T02:07:34.424Z,43.40
2022-08-14T02:10:18.117Z,43.70
2022-08-14T02:12:57.174Z,43.54
2022-08-14T02:15:30.248Z,43.19
2022-08-14T02:18:01.917Z,43.51
2022-08-14T02:20:33.951Z,43.65
2022-08-14T02:23:08.364Z,43.26
2022-08-14T02:25:42.354Z,43.89
2022-08-14T02:28:22.505Z,44.08
2022-08-14T02:31:03.908Z,43.90
2022-08-14T02:33:42.016Z,43.79
2022-08-14T02:37:02.664Z,44.13
2022-08-14T02:39:04.965Z,43.87
2022-08-14T02:41:45.030Z,43.97
2022-08-14T02:44:29.589Z,43.84
2022-08-14T02:47:01.105Z,43.92
2022-08-14T02:49:34.156Z,44.19
2022-08-14T02:52:27.018Z,43.95
2022-08-14T02:54:57.182Z,44.17
2022-08-14T02:57:39.505Z,43.97
2022-08-14T03:00:18.660Z,43.85
2022-08-14T03:02:58.790Z,44.13
2022-08-14T03:05:32.914Z,43.98
2022-08-14T03:08:11.158Z,44.16
2022-08-14T03:10:41.727Z,44.33
2022-08-14T03:13:22.059Z,44.24
2022-08-14T03:15:58.121Z,44.28
2022-08-14T03:18:31.403Z,44.21
2022-08-14T03:21:07.769Z,44.31
2022-08-14T03:23:39.958Z,44.28
2022-08-14T03:26:13.040Z,44.39
2022-08-14T03:28:52.826Z,44.67
2022-08-14T03:31:26.032Z,44.56
2022-08-14T03:33:59.933Z,44.57
2022-08-14T03:37:38.050Z,44.28
2022-08-14T03:39:24.324Z,44.81
2022-08-14T03:41:59.963Z,44.75
2022-08-14T03:45:19.913Z,44.61
2022-08-14T03:47:38.163Z,44.88
2022-08-14T03:50:27.651Z,44.91
2022-08-14T03:53:01.733Z,45.20
2022-08-14T03:55:35.017Z,45.10
2022-08-14T03:58:04.912Z,45.35
2022-08-14T04:00:43.794Z,45.70
2022-08-14T04:03:24.074Z,45.47
2022-08-14T04:05:55.222Z,45.93
2022-08-14T04:08:31.030Z,45.44
2022-08-14T04:11:02.868Z,45.59
2022-08-14T04:13:41.200Z,45.47
2022-08-14T04:16:16.672Z,45.00
2022-08-14T04:18:48.945Z,45.27
2022-08-14T04:21:20.351Z,45.20
2022-08-14T04:23:57.339Z,45.10
2022-08-14T04:26:42.336Z,45.20
2022-08-14T04:29:16.041Z,45.15
2022-08-14T04:32:57.601Z,45.18
2022-08-14T04:34:42.456Z,45.20
2022-08-14T04:37:36.730Z,45.27
2022-08-14T04:40:21.732Z,45.25
2022-08-14T04:43:06.366Z,45.06
2022-08-14T04:45:40.770Z,45.30
2022-08-14T04:48:13.229Z,45.13
2022-08-14T04:50:45.501Z,45.33
2022-08-14T04:53:34.755Z,44.74
2022-08-14T04:56:10.605Z,44.60
2022-08-14T04:58:42.583Z,44.63
2022-08-14T05:01:17.761Z,44.64
2022-08-14T05:03:52.958Z,44.74
2022-08-14T05:06:37.153Z,44.69
2022-08-14T05:09:13.959Z,44.70
2022-08-14T05:11:44.655Z,44.63
2022-08-14T05:14:16.994Z,44.63
2022-08-14T05:17:04.982Z,44.32
2022-08-14T05:19:44.804Z,44.63
2022-08-14T05:22:29.769Z,43.93
2022-08-14T05:25:01.249Z,44.49
2022-08-14T05:27:32.132Z,44.31
2022-08-14T05:30:02.034Z,44.11
2022-08-14T05:32:32.026Z,44.36
2022-08-14T05:35:04.627Z,43.84
2022-08-14T05:37:34.609Z,44.08
2022-08-14T05:40:06.698Z,43.68
2022-08-14T05:42:37.113Z,44.18
2022-08-14T05:45:11.028Z,43.87
2022-08-14T05:47:44.001Z,43.37
2022-08-14T05:50:19.219Z,43.57
2022-08-14T05:52:51.993Z,44.04
2022-08-14T05:55:23.549Z,43.83
2022-08-14T05:57:57.984Z,43.24
2022-08-14T06:00:36.881Z,42.79
2022-08-14T06:03:10.754Z,42.70
2022-08-14T06:05:43.971Z,42.78
2022-08-14T06:08:35.394Z,42.12
2022-08-14T06:11:08.961Z,42.12
2022-08-14T06:13:45.437Z,42.59
2022-08-14T06:16:18.921Z,42.21
2022-08-14T06:18:52.652Z,42.47
2022-08-14T06:21:26.420Z,42.11
2022-08-14T06:23:56.383Z,42.33
2022-08-14T06:26:30.159Z,42.14
2022-08-14T06:29:00.926Z,42.17
2022-08-14T06:31:31.169Z,42.19
2022-08-14T06:35:03.521Z,42.10
2022-08-14T06:36:53.726Z,41.75
2022-08-14T06:39:36.503Z,41.78
2022-08-14T06:42:08.113Z,41.35
2022-08-14T06:44:58.409Z,41.21
2022-08-14T06:47:30.329Z,41.38
2022-08-14T06:50:00.182Z,41.05
2022-08-14T06:52:32.684Z,40.65
2022-08-14T06:55:02.597Z,40.53
2022-08-14T06:57:38.960Z,41.33
2022-08-14T07:00:22.281Z,40.78
2022-08-14T07:03:12.213Z,40.52
2022-08-14T07:05:57.896Z,40.28
2022-08-14T07:08:33.840Z,39.93
2022-08-14T07:11:06.178Z,39.80
2022-08-14T07:13:36.102Z,39.88
2022-08-14T07:16:06.938Z,39.29
2022-08-14T07:18:40.685Z,39.98
2022-08-14T07:21:11.951Z,39.84
2022-08-14T07:23:44.802Z,38.65
2022-08-14T07:26:16.603Z,39.27
2022-08-14T07:28:47.314Z,38.96
2022-08-14T07:31:17.892Z,38.54
2022-08-14T07:33:50.376Z,38.42
2022-08-14T07:36:27.059Z,37.83
2022-08-14T07:39:13.123Z,37.71
2022-08-14T07:41:44.476Z,37.91
2022-08-14T07:44:29.543Z,37.59
2022-08-14T07:47:05.253Z,37.15
2022-08-14T07:49:35.372Z,37.15
2022-08-14T07:52:05.649Z,36.54
2022-08-14T07:54:40.839Z,36.49
2022-08-14T07:57:22.318Z,36.70
2022-08-14T07:59:54.940Z,37.48
2022-08-14T08:02:26.265Z,36.93
2022-08-14T08:04:58.956Z,36.68
2022-08-14T08:07:32.148Z,36.46
2022-08-14T08:10:31.419Z,36.70
2022-08-14T08:13:18.801Z,35.68
2022-08-14T08:15:57.438Z,35.15
2022-08-14T08:18:31.081Z,34.65
2022-08-14T08:21:01.388Z,34.49
2022-08-14T08:23:40.268Z,34.87
2022-08-14T08:26:16.017Z,34.47
2022-08-14T08:28:57.737Z,34.90
2022-08-14T08:31:32.888Z,34.96
2022-08-14T08:34:14.255Z,34.47
2022-08-14T08:36:48.676Z,35.26
2022-08-14T08:39:22.561Z,34.89
2022-08-14T08:41:55.846Z,34.97
2022-08-14T08:44:34.490Z,34.41
2022-08-14T08:47:06.636Z,34.38
2022-08-14T08:49:52.785Z,34.42
2022-08-14T08:52:31.821Z,34.31
2022-08-14T08:55:04.660Z,34.05
2022-08-14T08:57:39.594Z,33.89
2022-08-14T09:00:29.406Z,34.08
2022-08-14T09:03:03.358Z,33.87
2022-08-14T09:05:35.656Z,32.94
2022-08-14T09:08:26.655Z,32.48
2022-08-14T09:11:02.777Z,32.33
2022-08-14T09:13:54.156Z,31.99
2022-08-14T09:16:26.522Z,31.44
2022-08-14T09:18:56.823Z,31.04
2022-08-14T09:21:31.198Z,30.46
2022-08-14T09:24:28.784Z,30.93
2022-08-14T09:26:54.631Z,29.96
2022-08-14T09:29:28.772Z,29.77
2022-08-14T09:32:03.417Z,30.52
2022-08-14T09:35:08.302Z,30.51
2022-08-14T09:37:50.330Z,31.11
2022-08-14T09:40:33.683Z,30.78
2022-08-14T09:43:19.967Z,30.44
2022-08-14T09:45:58.629Z,30.38
2022-08-14T09:48:32.626Z,30.59
2022-08-14T09:54:18.203Z,29.79
2022-08-14T09:56:45.867Z,29.02
2022-08-14T09:59:23.667Z,28.24
2022-08-14T10:01:57.345Z,29.70
2022-08-14T10:04:34.711Z,29.07
2022-08-14T10:07:06.241Z,27.54
2022-08-14T10:09:57.813Z,28.14
2022-08-14T10:12:46.405Z,28.78
2022-08-14T10:15:22.379Z,27.50
2022-08-14T10:18:09.665Z,27.07
2022-08-14T10:20:57.943Z,26.32
2022-08-14T10:23:33.771Z,26.47
2022-08-14T10:26:08.415Z,26.09
2022-08-14T10:29:17.566Z,26.32
2022-08-14T10:31:44.744Z,24.97
2022-08-14T10:34:29.087Z,24.81
2022-08-14T10:37:14.584Z,24.71
2022-08-14T10:39:47.021Z,24.82
2022-08-14T10:42:39.196Z,25.11
2022-08-14T10:45:22.374Z,25.05
2022-08-14T10:48:08.209Z,25.06
2022-08-14T10:50:46.618Z,24.78
2022-08-14T10:53:17.234Z,24.34
2022-08-14T10:55:50.431Z,24.63
2022-08-14T10:58:34.320Z,25.62
2022-08-14T11:01:07.989Z,26.10
2022-08-14T11:03:56.958Z,25.42
2022-08-14T11:06:31.374Z,26.07
2022-08-14T11:09:01.327Z,26.42
2022-08-14T11:11:37.135Z,26.61
2022-08-14T11:14:09.401Z,26.47
2022-08-14T11:16:53.472Z,26.07
2022-08-14T11:19:26.752Z,27.43
2022-08-14T11:22:02.558Z,27.87
2022-08-14T11:24:54.092Z,26.82
2022-08-14T11:27:33.500Z,27.79
2022-08-14T11:30:51.515Z,27.69
2022-08-14T11:32:58.974Z,29.28
2022-08-14T11:35:36.953Z,28.05
2022-08-14T11:38:18.148Z,29.35
2022-08-14T11:40:48.955Z,28.46
2022-08-14T11:43:19.131Z,27.83
2022-08-14T11:46:03.725Z,27.68
2022-08-14T11:49:02.606Z,27.10
2022-08-14T11:51:30.429Z,28.38
2022-08-14T11:54:06.415Z,27.36
2022-08-14T11:56:39.820Z,27.62
2022-08-14T11:59:11.863Z,27.44
2022-08-14T12:01:41.721Z,27.89
2022-08-14T12:04:31.791Z,27.71
2022-08-14T12:07:04.977Z,27.91
2022-08-14T12:09:43.149Z,26.67
2022-08-14T12:12:35.630Z,26.75
2022-08-14T12:15:09.003Z,26.40
2022-08-14T12:17:49.739Z,26.95
2022-08-14T12:20:30.104Z,26.09
2022-08-14T12:23:05.591Z,26.80
2022-08-14T12:25:38.664Z,26.43
2022-08-14T12:28:26.743Z,25.62
2022-08-14T12:31:03.704Z,26.04
2022-08-14T12:33:34.998Z,26.13
2022-08-14T12:36:12.284Z,26.55
2022-08-14T12:38:54.323Z,26.24
2022-08-14T12:41:34.392Z,26.04
2022-08-14T12:44:09.725Z,26.41
2022-08-14T12:46:43.385Z,28.27
2022-08-14T12:49:20.493Z,26.08
2022-08-14T12:51:59.619Z,25.19
2022-08-14T12:54:32.031Z,26.13
2022-08-14T12:57:19.712Z,26.62
2022-08-14T12:59:50.769Z,25.74
2022-08-14T13:02:29.625Z,26.47
2022-08-14T13:04:59.619Z,26.00
2022-08-14T13:07:32.604Z,25.65
2022-08-14T13:10:47.640Z,26.25
2022-08-14T13:13:15.420Z,25.35
2022-08-14T13:15:47.400Z,25.66
2022-08-14T13:18:18.754Z,25.82
2022-08-14T13:20:57.825Z,25.83
2022-08-14T13:23:37.439Z,25.27
2022-08-14T13:26:10.105Z,25.94
2022-08-14T13:29:02.481Z,25.64
2022-08-14T13:31:39.568Z,26.06
2022-08-14T13:34:11.194Z,25.40
2022-08-14T13:36:54.468Z,25.45
2022-08-14T13:39:36.677Z,25.19
2022-08-14T13:42:14.353Z,24.57
2022-08-14T13:44:48.536Z,24.93
2022-08-14T13:47:20.284Z,24.60
2022-08-14T13:49:57.649Z,24.16
2022-08-14T13:52:59.498Z,24.76
2022-08-14T13:55:22.968Z,24.75
2022-08-14T13:58:02.985Z,24.44
2022-08-14T14:00:51.815Z,25.24
2022-08-14T14:03:28.792Z,24.54
2022-08-14T14:06:03.321Z,23.84
2022-08-14T14:08:43.528Z,23.75
2022-08-14T14:11:19.507Z,24.05
2022-08-14T14:13:51.065Z,24.10
2022-08-14T14:16:30.925Z,23.66
2022-08-14T14:19:09.153Z,23.31
2022-08-14T14:21:41.930Z,23.82
2022-08-14T14:24:15.348Z,23.31
2022-08-14T14:26:50.623Z,25.78
2022-08-14T14:29:23.964Z,24.30
2022-08-14T14:32:01.132Z,23.98
2022-08-14T14:34:33.443Z,23.00
2022-08-14T14:37:06.166Z,23.11
2022-08-14T14:39:37.826Z,23.15
2022-08-14T14:42:35.411Z,22.95
2022-08-14T14:45:15.522Z,23.60
2022-08-14T14:47:51.618Z,23.58
2022-08-14T14:50:29.371Z,25.03
2022-08-14T14:53:12.876Z,23.90
2022-08-14T14:56:47.380Z,23.18
2022-08-14T14:58:35.364Z,23.10
2022-08-14T15:03:56.422Z,23.42
2022-08-14T15:06:30.276Z,23.38
2022-08-14T15:09:05.509Z,23.52
2022-08-14T15:11:38.951Z,23.27
2022-08-14T15:14:54.644Z,23.94
2022-08-14T15:16:59.202Z,23.55
2022-08-14T15:19:32.914Z,23.65
2022-08-14T15:22:02.936Z,23.69
2022-08-14T15:24:32.817Z,23.41
2022-08-14T15:27:05.640Z,23.41
2022-08-14T15:29:38.918Z,23.78
2022-08-14T15:32:14.021Z,24.74
2022-08-14T15:34:51.128Z,24.08
2022-08-14T15:37:23.876Z,23.64
2022-08-14T15:39:54.184Z,24.09
2022-08-14T15:42:24.626Z,23.67
2022-08-14T15:45:01.353Z,23.71
2022-08-14T15:47:33.121Z,23.79
2022-08-14T15:50:09.640Z,23.24
2022-08-14T15:52:43.161Z,23.14
2022-08-14T15:55:16.829Z,23.69
2022-08-14T15:58:02.449Z,23.54
2022-08-14T16:00:49.421Z,23.26
2022-08-14T16:03:27.878Z,23.28
2022-08-14T16:06:15.244Z,23.14
2022-08-14T16:08:50.251Z,23.02
2022-08-14T16:11:33.069Z,23.79
2022-08-14T16:14:06.851Z,24.17
2022-08-14T16:16:50.643Z,24.04
2022-08-14T16:19:27.438Z,24.14
2022-08-14T16:23:10.671Z,23.73
2022-08-14T16:25:01.928Z,24.65
2022-08-14T16:27:41.075Z,24.22
2022-08-14T16:30:25.561Z,23.55
2022-08-14T16:33:01.155Z,24.30
2022-08-14T16:35:43.229Z,24.46
2022-08-14T16:40:25.544Z,24.88
2022-08-14T16:41:27.198Z,24.37
2022-08-14T16:44:04.514Z,24.55
2022-08-14T16:46:43.527Z,24.78
2022-08-14T16:49:16.450Z,24.81
2022-08-14T16:51:52.721Z,24.89
2022-08-14T16:54:35.365Z,25.49
2022-08-14T16:57:17.405Z,25.09
2022-08-14T16:59:57.495Z,26.64
2022-08-14T17:02:40.680Z,25.56
2022-08-14T17:05:20.814Z,25.46
2022-08-14T17:08:32.510Z,25.73
2022-08-14T17:11:10.570Z,25.79
2022-08-14T17:13:58.371Z,26.45
2022-08-14T17:16:35.949Z,25.31
2022-08-14T17:19:14.476Z,25.86
2022-08-14T17:21:52.626Z,25.83
2022-08-14T17:24:58.200Z,25.70
2022-08-14T17:27:18.287Z,25.92
2022-08-14T17:29:56.032Z,25.87
2022-08-14T17:32:56.715Z,26.27
2022-08-14T17:35:57.761Z,26.43
2022-08-14T17:38:38.559Z,26.36
2022-08-14T17:41:32.941Z,26.26
2022-08-14T17:44:34.028Z,26.14
2022-08-14T17:47:14.812Z,27.00
2022-08-14T17:49:51.802Z,26.89
2022-08-14T17:52:34.256Z,26.63
2022-08-14T17:55:05.746Z,26.29
2022-08-14T17:57:41.143Z,26.51
2022-08-14T18:00:17.822Z,26.56
2022-08-14T18:02:50.383Z,27.67
2022-08-14T18:06:06.960Z,28.19
2022-08-14T18:08:32.342Z,27.97
2022-08-14T18:11:05.287Z,28.36
2022-08-14T18:13:49.753Z,28.64
2022-08-14T18:16:26.206Z,29.05
2022-08-14T18:19:02.802Z,28.97
2022-08-14T18:21:56.281Z,29.36
2022-08-14T18:24:29.275Z,29.17
2022-08-14T18:27:09.093Z,29.61
2022-08-14T18:29:54.751Z,29.36
2022-08-14T18:32:47.323Z,29.90
2022-08-14T18:35:46.006Z,29.44
2022-08-14T18:38:26.215Z,29.70
2022-08-14T18:41:37.412Z,29.68
2022-08-14T18:44:10.526Z,29.93
2022-08-14T18:47:15.043Z,29.86
2022-08-14T18:50:26.319Z,29.74
2022-08-14T18:53:10.904Z,29.89
2022-08-14T18:55:53.852Z,30.21
2022-08-14T18:58:31.301Z,30.04
2022-08-14T19:01:06.264Z,30.27
2022-08-14T19:03:57.871Z,29.93
2022-08-14T19:06:56.461Z,30.09
2022-08-14T19:09:54.326Z,30.34
2022-08-14T19:13:05.010Z,30.34
2022-08-14T19:15:44.025Z,30.43
2022-08-14T19:18:29.414Z,30.22
2022-08-14T19:21:02.572Z,30.64
2022-08-14T19:24:00.104Z,31.19
2022-08-14T19:26:37.657Z,31.50
2022-08-14T19:29:23.407Z,31.52
2022-08-14T19:31:56.744Z,31.83
2022-08-14T19:34:52.207Z,31.44
2022-08-14T19:37:47.796Z,31.92
2022-08-14T19:40:39.299Z,31.75
2022-08-14T19:43:09.845Z,31.97
2022-08-14T19:45:40.711Z,32.09
2022-08-14T19:48:15.880Z,32.01
2022-08-14T19:50:46.414Z,32.20
2022-08-14T19:53:18.455Z,32.42
2022-08-14T19:56:02.333Z,32.45
2022-08-14T19:58:54.143Z,32.43
2022-08-14T20:01:37.041Z,32.27
2022-08-14T20:04:45.086Z,32.32
2022-08-14T20:07:01.629Z,32.34
2022-08-14T20:11:11.574Z,32.85
2022-08-14T20:12:57.249Z,32.64
2022-08-14T20:15:46.939Z,32.45
2022-08-14T20:18:45.841Z,32.86
2022-08-14T20:21:07.769Z,32.74
2022-08-14T20:23:38.942Z,32.56
2022-08-14T20:26:31.974Z,32.87
2022-08-14T20:29:09.255Z,33.09
2022-08-14T20:31:45.663Z,33.39
2022-08-14T20:34:35.281Z,32.93
2022-08-14T20:37:09.942Z,33.12
2022-08-14T20:39:53.849Z,33.20
2022-08-14T20:42:38.412Z,33.40
2022-08-14T20:45:24.193Z,33.64
2022-08-14T20:48:01.055Z,33.75
2022-08-14T20:50:33.108Z,33.61
2022-08-14T20:53:05.932Z,33.58
2022-08-14T20:55:45.122Z,33.71
2022-08-14T20:58:42.042Z,33.71
2022-08-14T21:01:35.892Z,33.81
2022-08-14T21:04:23.787Z,33.56
2022-08-14T21:07:25.236Z,34.04
2022-08-14T21:10:06.226Z,33.96
2022-08-14T21:13:26.462Z,34.13
2022-08-14T21:15:32.827Z,34.27
2022-08-14T21:18:05.405Z,34.24
2022-08-14T21:20:36.978Z,34.34
2022-08-14T21:23:07.536Z,34.12
2022-08-14T21:25:38.532Z,34.20
2022-08-14T21:28:20.924Z,34.51
2022-08-14T21:31:00.185Z,34.48
2022-08-14T21:33:33.970Z,35.04
2022-08-14T21:36:07.912Z,34.58
2022-08-14T21:38:39.317Z,34.75
2022-08-14T21:41:42.601Z,34.46
2022-08-14T21:44:18.259Z,34.38
2022-08-14T21:46:53.373Z,34.97
2022-08-14T21:49:38.299Z,34.84
2022-08-14T21:52:50.466Z,34.61
2022-08-14T21:55:09.161Z,34.67
2022-08-14T21:58:46.099Z,34.90
2022-08-14T22:00:39.451Z,34.98
2022-08-14T22:03:17.221Z,34.87
2022-08-14T22:05:52.319Z,34.76
2022-08-14T22:08:26.747Z,35.09
2022-08-14T22:10:59.127Z,34.76
2022-08-14T22:13:32.096Z,34.95
2022-08-14T22:16:03.484Z,35.37
2022-08-14T22:18:34.206Z,35.30
2022-08-14T22:21:16.748Z,35.13
2022-08-14T22:23:47.141Z,35.30
2022-08-14T22:26:22.526Z,35.34
2022-08-14T22:29:00.782Z,35.42
2022-08-14T22:31:35.284Z,35.39
2022-08-14T22:34:10.336Z,35.48
2022-08-14T22:36:51.695Z,35.49
2022-08-14T22:40:16.928Z,35.51
2022-08-14T22:42:21.522Z,35.59
2022-08-14T22:44:56.758Z,35.91
2022-08-14T22:47:40.291Z,35.93
2022-08-14T22:50:29.488Z,36.16
2022-08-14T22:53:06.766Z,35.79
2022-08-14T22:55:36.840Z,36.06
2022-08-14T22:58:07.256Z,35.88
2022-08-14T23:00:37.604Z,36.13
2022-08-14T23:03:17.613Z,36.27
2022-08-14T23:05:54.546Z,36.52
2022-08-14T23:08:56.885Z,36.34
2022-08-14T23:11:18.140Z,36.56
2022-08-14T23:13:48.108Z,36.82
2022-08-14T23:16:19.986Z,36.90
2022-08-14T23:18:53.449Z,36.80
2022-08-14T23:21:28.678Z,36.90
2022-08-14T23:24:03.137Z,37.00
2022-08-14T23:26:48.412Z,37.18
2022-08-14T23:29:22.605Z,37.05
2022-08-14T23:31:53.050Z,36.74
2022-08-14T23:34:25.264Z,37.16
2022-08-14T23:37:03.701Z,37.35
2022-08-14T23:39:39.232Z,37.00
2022-08-14T23:42:11.975Z,37.17
2022-08-14T23:44:49.020Z,37.43
2022-08-14T23:47:26.324Z,37.80
2022-08-14T23:50:00.939Z,38.03
2022-08-14T23:52:50.479Z,37.70
2022-08-14T23:55:32.096Z,37.63
2022-08-14T23:58:02.793Z,38.13
